createdAt,value
2019-05-06T00:00:26.769Z,97.10
2019-05-06T00:02:56.245Z,97.00
2019-05-06T00:05:25.786Z,97.10
2019-05-06T00:07:55.437Z,97.30
2019-05-06T00:10:34.127Z,97.20
2019-05-06T00:13:04.910Z,97.40
2019-05-06T00:15:34.607Z,97.70
2019-05-06T00:18:04.683Z,97.50
2019-05-06T00:20:35.112Z,96.90
2019-05-06T00:23:16.353Z,97.30
2019-05-06T00:26:04.053Z,97.10
2019-05-06T00:28:35.101Z,97.20
2019-05-06T00:31:12.671Z,97.40
2019-05-06T00:33:37.111Z,97.30
2019-05-06T00:36:06.433Z,97.20
2019-05-06T00:38:37.201Z,97.80
2019-05-06T00:41:16.774Z,97.70
2019-05-06T00:43:45.987Z,97.70
2019-05-06T00:46:15.484Z,97.80
2019-05-06T00:48:44.948Z,97.60
2019-05-06T00:51:15.374Z,97.40
2019-05-06T00:53:49.591Z,98.00
2019-05-06T00:56:18.900Z,98.00
2019-05-06T00:58:48.197Z,97.80
2019-05-06T01:01:26.950Z,97.50
2019-05-06T01:03:48.550Z,97.60
2019-05-06T01:06:17.855Z,97.80
2019-05-06T01:08:47.236Z,97.90
2019-05-06T01:11:16.570Z,97.80
2019-05-06T01:13:50.458Z,97.50
2019-05-06T01:16:20.916Z,97.50
2019-05-06T01:18:50.264Z,97.90
2019-05-06T01:21:19.642Z,97.40
2019-05-06T01:23:49.023Z,97.70
2019-05-06T01:26:18.359Z,97.80
2019-05-06T01:28:47.689Z,97.60
2019-05-06T01:31:17.053Z,97.70
2019-05-06T01:33:46.371Z,97.60
2019-05-06T01:36:15.672Z,97.60
2019-05-06T01:39:04.268Z,97.70
2019-05-06T01:41:41.583Z,97.40
2019-05-06T01:44:10.892Z,97.40
2019-05-06T01:46:40.216Z,97.50
2019-05-06T01:49:09.514Z,98.10
2019-05-06T01:51:38.837Z,97.50
2019-05-06T01:54:08.156Z,97.90
2019-05-06T01:56:37.482Z,98.10
2019-05-06T01:59:06.813Z,97.80
2019-05-06T02:01:36.113Z,97.90
2019-05-06T02:04:05.502Z,97.80
2019-05-06T02:06:34.800Z,97.50
2019-05-06T02:09:08.478Z,97.70
2019-05-06T02:11:38.052Z,97.50
2019-05-06T02:14:08.348Z,98.00
2019-05-06T02:16:38.609Z,98.00
2019-05-06T02:19:08.000Z,97.70
2019-05-06T02:21:38.968Z,97.70
2019-05-06T02:24:09.902Z,97.90
2019-05-06T02:26:39.254Z,98.20
2019-05-06T02:29:19.312Z,98.20
2019-05-06T02:32:16.159Z,98.10
2019-05-06T02:34:48.683Z,97.80
2019-05-06T02:37:19.677Z,97.90
2019-05-06T02:39:49.066Z,98.00
2019-05-06T02:42:18.391Z,98.20
2019-05-06T02:44:47.872Z,98.10
2019-05-06T02:47:24.622Z,97.90
2019-05-06T02:49:55.635Z,98.10
2019-05-06T02:52:24.927Z,97.90
2019-05-06T02:54:54.237Z,98.10
2019-05-06T02:57:23.954Z,98.30
2019-05-06T02:59:55.178Z,98.10
2019-05-06T03:02:38.959Z,98.00
2019-05-06T03:04:55.629Z,98.10
2019-05-06T03:07:24.950Z,98.00
2019-05-06T03:09:54.252Z,97.90
2019-05-06T03:12:23.613Z,97.60
2019-05-06T03:14:53.522Z,97.50
2019-05-06T03:17:23.618Z,97.90
2019-05-06T03:19:54.821Z,97.80
2019-05-06T03:22:34.453Z,97.80
2019-05-06T03:25:06.923Z,97.80
2019-05-06T03:27:35.509Z,98.20
2019-05-06T03:30:06.824Z,97.80
2019-05-06T03:32:38.198Z,98.00
2019-05-06T03:35:27.420Z,98.40
2019-05-06T03:37:58.669Z,98.40
2019-05-06T03:40:29.060Z,98.10
2019-05-06T03:42:58.356Z,97.60
2019-05-06T03:45:45.539Z,97.60
2019-05-06T03:48:16.473Z,97.60
2019-05-06T03:50:45.793Z,97.50
2019-05-06T03:53:16.137Z,97.60
2019-05-06T03:55:47.164Z,98.00
2019-05-06T03:58:17.613Z,97.90
2019-05-06T04:00:46.920Z,97.60
2019-05-06T04:03:16.229Z,97.70
2019-05-06T04:05:46.190Z,97.90
2019-05-06T04:08:20.079Z,97.70
2019-05-06T04:10:47.105Z,97.30
2019-05-06T04:13:16.397Z,97.50
2019-05-06T04:15:48.410Z,97.90
2019-05-06T04:18:19.488Z,98.10
2019-05-06T04:20:53.121Z,97.60
2019-05-06T04:23:43.644Z,97.70
2019-05-06T04:26:20.166Z,97.90
2019-05-06T04:28:49.574Z,98.00
2019-05-06T04:31:18.943Z,98.00
2019-05-06T04:34:06.379Z,98.10
2019-05-06T04:36:19.712Z,97.90
2019-05-06T04:38:48.999Z,98.00
2019-05-06T04:41:18.397Z,97.60
2019-05-06T04:43:47.971Z,97.50
2019-05-06T04:46:18.431Z,97.60
2019-05-06T04:48:47.815Z,97.90
2019-05-06T04:51:17.296Z,97.90
2019-05-06T04:53:48.146Z,98.00
2019-05-06T04:56:16.757Z,97.80
2019-05-06T04:58:46.092Z,97.70
2019-05-06T05:01:15.938Z,97.50
2019-05-06T05:03:45.550Z,97.30
2019-05-06T05:06:15.017Z,97.10
2019-05-06T05:08:44.417Z,96.60
2019-05-06T05:11:33.267Z,96.80
2019-05-06T05:14:13.792Z,97.50
2019-05-06T05:16:53.784Z,97.40
2019-05-06T05:19:23.220Z,97.80
2019-05-06T05:21:54.247Z,97.40
2019-05-06T05:24:24.189Z,97.30
2019-05-06T05:26:53.500Z,97.10
2019-05-06T05:29:22.932Z,97.10
2019-05-06T05:31:52.948Z,97.00
2019-05-06T05:34:36.315Z,96.60
2019-05-06T05:36:53.873Z,96.60
2019-05-06T05:39:23.545Z,96.50
2019-05-06T05:41:54.613Z,96.40
2019-05-06T05:44:25.645Z,96.00
2019-05-06T05:46:55.087Z,96.40
2019-05-06T05:49:26.304Z,96.30
2019-05-06T05:51:55.671Z,96.60
2019-05-06T05:54:25.224Z,96.20
2019-05-06T05:57:13.860Z,95.70
2019-05-06T05:59:43.210Z,96.00
2019-05-06T06:02:13.037Z,96.00
2019-05-06T06:04:54.126Z,95.90
2019-05-06T06:07:13.950Z,95.80
2019-05-06T06:09:52.463Z,95.50
2019-05-06T06:12:23.021Z,95.40
2019-05-06T06:14:57.943Z,94.30
2019-05-06T06:17:43.904Z,94.80
2019-05-06T06:20:24.242Z,95.20
2019-05-06T06:22:54.891Z,94.60
2019-05-06T06:25:24.486Z,94.10
2019-05-06T06:27:53.853Z,93.30
2019-05-06T06:30:24.825Z,93.20
2019-05-06T06:32:54.950Z,93.20
2019-05-06T06:35:25.960Z,93.40
2019-05-06T06:37:57.082Z,92.60
2019-05-06T06:40:26.991Z,92.80
2019-05-06T06:42:58.011Z,92.40
2019-05-06T06:45:27.375Z,91.60
2019-05-06T06:47:56.860Z,91.80
2019-05-06T06:50:26.153Z,91.70
2019-05-06T06:52:55.466Z,91.40
2019-05-06T06:55:24.757Z,91.20
2019-05-06T06:58:06.240Z,90.40
2019-05-06T07:00:53.312Z,90.60
2019-05-06T07:03:27.829Z,90.00
2019-05-06T07:05:58.965Z,90.00
2019-05-06T07:08:36.533Z,89.80
2019-05-06T07:10:59.369Z,90.20
2019-05-06T07:13:28.768Z,87.60
2019-05-06T07:15:58.063Z,87.10
2019-05-06T07:18:27.380Z,88.40
2019-05-06T07:20:58.359Z,87.50
2019-05-06T07:23:32.716Z,87.10
2019-05-06T07:26:04.016Z,87.70
2019-05-06T07:28:34.953Z,87.40
2019-05-06T07:31:17.334Z,87.30
2019-05-06T07:33:35.348Z,86.10
2019-05-06T07:36:04.849Z,85.30
2019-05-06T07:38:34.449Z,85.00
2019-05-06T07:41:08.295Z,86.80
2019-05-06T07:43:42.174Z,85.50
2019-05-06T07:46:16.083Z,83.80
2019-05-06T07:48:45.384Z,81.50
2019-05-06T07:51:14.710Z,80.40
2019-05-06T07:53:44.229Z,79.80
2019-05-06T07:56:13.669Z,80.20
2019-05-06T07:58:43.561Z,77.50
2019-05-06T08:01:13.799Z,75.70
2019-05-06T08:03:43.404Z,76.60
2019-05-06T08:06:13.319Z,77.90
2019-05-06T08:08:43.547Z,79.10
2019-05-06T08:11:13.137Z,77.80
2019-05-06T08:13:43.435Z,77.00
2019-05-06T08:16:14.343Z,77.20
2019-05-06T08:18:43.668Z,73.40
2019-05-06T08:21:17.676Z,74.70
2019-05-06T08:23:48.624Z,75.70
2019-05-06T08:26:18.263Z,75.50
2019-05-06T08:28:47.701Z,73.70
2019-05-06T08:31:18.738Z,73.00
2019-05-06T08:33:48.050Z,72.90
2019-05-06T08:36:23.041Z,70.20
2019-05-06T08:39:05.910Z,72.10
2019-05-06T08:41:35.497Z,72.90
2019-05-06T08:44:05.533Z,73.60
2019-05-06T08:46:34.935Z,74.40
2019-05-06T08:49:05.273Z,73.50
2019-05-06T08:51:42.762Z,71.90
2019-05-06T08:54:13.849Z,71.00
2019-05-06T08:56:43.166Z,71.20
2019-05-06T08:59:14.046Z,67.70
2019-05-06T09:01:47.914Z,63.70
2019-05-06T09:04:17.460Z,65.10
2019-05-06T09:06:46.783Z,69.00
2019-05-06T09:09:16.107Z,70.00
2019-05-06T09:11:45.466Z,73.10
2019-05-06T09:14:14.821Z,72.10
2019-05-06T09:16:44.356Z,75.70
2019-05-06T09:19:13.907Z,82.00
2019-05-06T09:21:46.053Z,87.60
2019-05-06T09:24:14.296Z,89.40
2019-05-06T09:26:47.745Z,88.80
2019-05-06T09:29:18.685Z,91.00
2019-05-06T09:32:05.968Z,91.90
2019-05-06T09:34:39.360Z,91.30
2019-05-06T09:37:15.575Z,90.60
2019-05-06T09:39:46.425Z,90.70
2019-05-06T09:42:16.599Z,91.30
2019-05-06T09:44:50.219Z,91.70
2019-05-06T09:47:33.076Z,91.70
2019-05-06T09:50:07.296Z,91.10
2019-05-06T09:52:36.789Z,91.00
2019-05-06T09:55:15.291Z,90.60
2019-05-06T09:58:04.861Z,89.30
2019-05-06T10:00:36.229Z,90.80
2019-05-06T10:03:07.142Z,92.40
2019-05-06T10:05:36.540Z,87.90
2019-05-06T10:08:08.732Z,90.90
2019-05-06T10:10:38.135Z,92.50
2019-05-06T10:13:07.565Z,92.50
2019-05-06T10:15:37.029Z,92.10
2019-05-06T10:18:12.714Z,92.00
2019-05-06T10:20:43.579Z,91.10
2019-05-06T10:23:14.087Z,90.60
2019-05-06T10:25:44.365Z,91.20
2019-05-06T10:28:24.589Z,91.20
2019-05-06T10:30:55.552Z,92.20
2019-05-06T10:33:26.620Z,90.10
2019-05-06T10:35:58.729Z,90.50
2019-05-06T10:38:31.680Z,91.30
2019-05-06T10:41:07.568Z,89.40
2019-05-06T10:43:38.224Z,86.60
2019-05-06T10:46:07.516Z,88.20
2019-05-06T10:48:36.921Z,84.20
2019-05-06T10:51:07.888Z,85.40
2019-05-06T10:53:37.234Z,81.70
2019-05-06T10:56:14.105Z,80.20
2019-05-06T10:58:44.117Z,78.50
2019-05-06T11:01:18.411Z,80.90
2019-05-06T11:03:47.821Z,77.30
2019-05-06T11:06:17.117Z,77.70
2019-05-06T11:08:46.460Z,75.00
2019-05-06T11:11:31.259Z,71.00
2019-05-06T11:13:46.950Z,71.30
2019-05-06T11:16:17.041Z,66.40
2019-05-06T11:18:46.647Z,64.00
2019-05-06T11:21:15.993Z,64.90
2019-05-06T11:23:45.364Z,64.00
2019-05-06T11:26:14.791Z,61.70
2019-05-06T11:28:48.647Z,59.80
2019-05-06T11:31:19.625Z,56.60
2019-05-06T11:33:53.336Z,59.40
2019-05-06T11:36:42.679Z,54.10
2019-05-06T11:39:14.035Z,53.80
2019-05-06T11:41:59.675Z,49.80
2019-05-06T11:44:14.159Z,51.40
2019-05-06T11:46:43.524Z,48.30
2019-05-06T11:49:12.937Z,47.70
2019-05-06T11:51:43.506Z,46.50
2019-05-06T11:54:17.465Z,47.10
2019-05-06T11:56:50.914Z,46.30
2019-05-06T11:59:16.783Z,48.70
2019-05-06T12:01:47.829Z,50.10
2019-05-06T12:04:17.148Z,48.20
2019-05-06T12:06:46.469Z,47.50
2019-05-06T12:09:17.105Z,48.30
2019-05-06T12:11:46.793Z,49.80
2019-05-06T12:14:16.118Z,48.80
2019-05-06T12:16:45.542Z,49.30
2019-05-06T12:19:14.928Z,52.80
2019-05-06T12:21:44.227Z,52.80
2019-05-06T12:24:13.557Z,53.20
2019-05-06T12:26:43.069Z,55.30
2019-05-06T12:29:12.806Z,55.60
2019-05-06T12:31:42.454Z,54.60
2019-05-06T12:34:14.468Z,55.30
2019-05-06T12:36:43.065Z,56.30
2019-05-06T12:39:19.206Z,58.10
2019-05-06T12:41:59.079Z,59.10
2019-05-06T12:44:28.775Z,60.60
2019-05-06T12:47:03.837Z,60.70
2019-05-06T12:49:33.249Z,57.30
2019-05-06T12:52:02.547Z,59.50
2019-05-06T12:54:33.574Z,59.70
2019-05-06T12:57:03.482Z,59.50
2019-05-06T12:59:33.032Z,60.30
2019-05-06T13:02:02.853Z,59.40
2019-05-06T13:04:49.701Z,58.90
2019-05-06T13:07:03.429Z,54.00
2019-05-06T13:09:33.308Z,54.10
2019-05-06T13:12:03.905Z,54.90
2019-05-06T13:14:33.793Z,54.50
2019-05-06T13:17:03.088Z,53.60
2019-05-06T13:19:32.469Z,53.20
2019-05-06T13:22:03.555Z,52.10
2019-05-06T13:24:32.909Z,48.50
2019-05-06T13:27:02.774Z,50.30
2019-05-06T13:29:35.624Z,53.40
2019-05-06T13:32:06.764Z,54.40
2019-05-06T13:34:36.113Z,53.80
2019-05-06T13:37:05.698Z,52.00
2019-05-06T13:39:35.118Z,50.10
2019-05-06T13:42:04.558Z,51.90
2019-05-06T13:44:33.961Z,54.50
2019-05-06T13:47:04.104Z,56.00
2019-05-06T13:49:42.801Z,57.80
2019-05-06T13:52:12.671Z,58.40
2019-05-06T13:54:42.529Z,58.50
2019-05-06T13:57:12.626Z,57.40
2019-05-06T13:59:44.171Z,60.50
2019-05-06T14:02:17.866Z,61.80
2019-05-06T14:04:47.203Z,60.70
2019-05-06T14:07:16.524Z,61.60
2019-05-06T14:09:45.847Z,60.80
2019-05-06T14:12:15.240Z,62.60
2019-05-06T14:14:44.588Z,61.10
2019-05-06T14:17:13.955Z,60.80
2019-05-06T14:19:43.364Z,59.20
2019-05-06T14:22:13.727Z,60.80
2019-05-06T14:24:44.712Z,61.50
2019-05-06T14:27:15.652Z,60.80
2019-05-06T14:29:46.641Z,59.00
2019-05-06T14:32:16.001Z,58.40
2019-05-06T14:34:45.343Z,59.50
2019-05-06T14:37:14.639Z,59.00
2019-05-06T14:39:58.171Z,56.70
2019-05-06T14:42:22.584Z,57.80
2019-05-06T14:44:51.902Z,53.50
2019-05-06T14:47:23.397Z,53.60
2019-05-06T14:49:53.190Z,54.90
2019-05-06T14:52:22.875Z,52.40
2019-05-06T14:54:55.004Z,54.10
2019-05-06T14:57:25.315Z,53.20
2019-05-06T14:59:55.781Z,52.70
2019-05-06T15:02:27.240Z,53.60
2019-05-06T15:04:57.075Z,53.10
2019-05-06T15:07:26.405Z,54.40
2019-05-06T15:10:15.170Z,50.90
2019-05-06T15:12:28.112Z,50.20
2019-05-06T15:14:57.671Z,49.80
2019-05-06T15:17:26.998Z,51.10
2019-05-06T15:19:56.329Z,47.10
2019-05-06T15:22:25.618Z,48.20
2019-05-06T15:24:54.972Z,46.40
2019-05-06T15:27:24.340Z,48.40
2019-05-06T15:29:58.388Z,49.00
2019-05-06T15:32:29.360Z,48.40
2019-05-06T15:35:02.868Z,50.60
2019-05-06T15:37:36.628Z,49.00
2019-05-06T15:40:07.703Z,49.70
2019-05-06T15:42:37.023Z,49.90
2019-05-06T15:45:06.664Z,48.80
2019-05-06T15:47:36.972Z,49.40
2019-05-06T15:50:06.616Z,47.10
2019-05-06T15:52:35.944Z,47.80
2019-05-06T15:55:07.053Z,46.60
2019-05-06T15:57:36.391Z,46.30
2019-05-06T16:00:07.675Z,45.20
2019-05-06T16:02:37.107Z,43.80
2019-05-06T16:05:17.625Z,44.50
2019-05-06T16:07:38.029Z,42.30
2019-05-06T16:10:08.475Z,43.10
2019-05-06T16:12:37.961Z,43.00
2019-05-06T16:15:07.918Z,41.70
2019-05-06T16:17:56.575Z,41.60
2019-05-06T16:20:25.891Z,43.90
2019-05-06T16:22:56.944Z,47.70
2019-05-06T16:25:26.338Z,48.30
2019-05-06T16:27:56.988Z,49.70
2019-05-06T16:30:26.392Z,51.30
2019-05-06T16:32:55.692Z,51.20
2019-05-06T16:35:25.045Z,52.40
2019-05-06T16:37:54.447Z,54.20
2019-05-06T16:40:24.322Z,52.90
2019-05-06T16:42:54.646Z,51.70
2019-05-06T16:45:24.351Z,51.50
2019-05-06T16:47:53.716Z,52.10
2019-05-06T16:50:24.152Z,52.00
2019-05-06T16:52:53.502Z,51.60
2019-05-06T16:55:36.266Z,52.20
2019-05-06T16:58:09.089Z,51.80
2019-05-06T17:00:38.699Z,52.10
2019-05-06T17:03:23.071Z,52.30
2019-05-06T17:06:09.604Z,51.00
2019-05-06T17:08:38.935Z,53.00
2019-05-06T17:11:08.262Z,51.60
2019-05-06T17:13:38.005Z,52.40
2019-05-06T17:16:07.615Z,53.30
2019-05-06T17:18:36.904Z,53.20
2019-05-06T17:21:06.370Z,54.40
2019-05-06T17:23:35.687Z,55.20
2019-05-06T17:26:06.088Z,55.60
2019-05-06T17:28:43.056Z,55.40
2019-05-06T17:31:23.009Z,54.60
2019-05-06T17:34:12.821Z,55.00
2019-05-06T17:36:42.631Z,55.80
2019-05-06T17:39:12.600Z,56.30
2019-05-06T17:41:48.229Z,57.60
2019-05-06T17:44:13.588Z,60.20
2019-05-06T17:46:44.592Z,61.90
2019-05-06T17:49:20.878Z,58.50
2019-05-06T17:51:56.936Z,59.00
2019-05-06T17:54:26.279Z,61.80
2019-05-06T17:56:55.572Z,65.20
2019-05-06T17:59:24.908Z,65.00
2019-05-06T18:01:55.960Z,67.90
2019-05-06T18:04:25.329Z,65.20
2019-05-06T18:06:54.728Z,67.80
2019-05-06T18:09:24.065Z,70.20
2019-05-06T18:11:59.038Z,70.70
2019-05-06T18:14:24.692Z,72.20
2019-05-06T18:16:54.065Z,71.60
2019-05-06T18:19:23.371Z,72.70
2019-05-06T18:21:52.930Z,73.10
2019-05-06T18:24:23.027Z,72.60
2019-05-06T18:26:52.955Z,73.00
2019-05-06T18:29:22.411Z,72.80
2019-05-06T18:31:52.517Z,72.30
2019-05-06T18:34:23.412Z,72.00
2019-05-06T18:36:52.735Z,72.30
2019-05-06T18:39:22.446Z,73.00
2019-05-06T18:41:53.166Z,73.50
2019-05-06T18:44:22.784Z,73.20
2019-05-06T18:46:53.034Z,75.20
2019-05-06T18:49:22.640Z,75.90
2019-05-06T18:51:54.103Z,76.20
2019-05-06T18:54:25.650Z,77.10
2019-05-06T18:56:54.171Z,77.10
2019-05-06T18:59:23.478Z,78.00
2019-05-06T19:01:53.900Z,75.30
2019-05-06T19:04:25.076Z,75.00
2019-05-06T19:07:09.316Z,75.10
2019-05-06T19:09:32.468Z,76.70
2019-05-06T19:12:03.559Z,78.70
2019-05-06T19:14:33.243Z,80.10
2019-05-06T19:17:02.956Z,80.30
2019-05-06T19:19:34.802Z,78.30
2019-05-06T19:22:03.348Z,77.00
2019-05-06T19:24:33.660Z,77.80
2019-05-06T19:27:03.171Z,77.70
2019-05-06T19:29:33.350Z,78.60
2019-05-06T19:32:03.093Z,81.00
2019-05-06T19:34:35.101Z,79.70
2019-05-06T19:37:03.776Z,81.00
2019-05-06T19:39:33.341Z,81.70
2019-05-06T19:42:05.068Z,81.70
2019-05-06T19:44:33.823Z,80.10
2019-05-06T19:47:03.221Z,80.20
2019-05-06T19:49:33.382Z,80.60
2019-05-06T19:52:03.322Z,80.40
2019-05-06T19:54:33.248Z,81.40
2019-05-06T19:57:03.064Z,81.60
2019-05-06T19:59:33.153Z,82.80
2019-05-06T20:02:05.162Z,84.50
2019-05-06T20:04:36.866Z,84.40
2019-05-06T20:07:07.824Z,84.20
2019-05-06T20:09:39.599Z,83.90
2019-05-06T20:12:12.262Z,84.40
2019-05-06T20:14:41.940Z,83.40
2019-05-06T20:17:12.918Z,83.60
2019-05-06T20:19:42.661Z,84.90
2019-05-06T20:22:12.995Z,85.80
2019-05-06T20:24:42.700Z,86.00
2019-05-06T20:27:13.404Z,86.00
2019-05-06T20:29:42.964Z,86.30
2019-05-06T20:32:12.336Z,85.70
2019-05-06T20:34:42.888Z,85.10
2019-05-06T20:37:12.951Z,85.00
2019-05-06T20:39:43.317Z,85.90
2019-05-06T20:42:12.963Z,86.10
2019-05-06T20:44:43.594Z,86.60
2019-05-06T20:47:13.265Z,87.70
2019-05-06T20:49:43.270Z,88.10
2019-05-06T20:52:12.760Z,89.10
2019-05-06T20:54:54.796Z,89.00
2019-05-06T20:57:24.199Z,88.60
2019-05-06T20:59:53.559Z,89.50
2019-05-06T21:02:25.594Z,90.00
2019-05-06T21:04:53.947Z,90.00
2019-05-06T21:07:23.284Z,90.00
2019-05-06T21:09:53.748Z,89.80
2019-05-06T21:12:23.093Z,90.20
2019-05-06T21:14:52.418Z,90.50
2019-05-06T21:17:22.887Z,90.40
2019-05-06T21:19:52.433Z,91.00
2019-05-06T21:22:21.883Z,90.90
2019-05-06T21:24:51.741Z,90.90
2019-05-06T21:27:22.981Z,91.50
2019-05-06T21:29:52.796Z,91.20
2019-05-06T21:32:22.162Z,92.00
2019-05-06T21:35:12.561Z,92.30
2019-05-06T21:37:42.446Z,91.80
2019-05-06T21:40:12.465Z,91.60
2019-05-06T21:42:43.106Z,91.70
2019-05-06T21:45:12.712Z,92.00
2019-05-06T21:47:45.850Z,92.10
2019-05-06T21:50:13.656Z,92.30
2019-05-06T21:52:43.282Z,92.70
2019-05-06T21:55:13.469Z,92.90
2019-05-06T21:57:42.890Z,92.70
2019-05-06T22:00:16.998Z,93.00
2019-05-06T22:02:46.615Z,93.40
2019-05-06T22:05:16.238Z,93.20
2019-05-06T22:07:45.584Z,93.30
2019-05-06T22:10:15.116Z,93.50
2019-05-06T22:12:44.583Z,93.70
2019-05-06T22:15:14.040Z,93.70
2019-05-06T22:17:43.376Z,93.80
2019-05-06T22:20:12.673Z,93.90
2019-05-06T22:22:43.653Z,94.10
2019-05-06T22:25:13.197Z,94.20
2019-05-06T22:27:44.566Z,94.50
2019-05-06T22:30:13.875Z,94.50
2019-05-06T22:32:46.210Z,94.30
2019-05-06T22:35:16.681Z,94.50
2019-05-06T22:37:46.263Z,94.30
2019-05-06T22:40:18.273Z,94.40
2019-05-06T22:42:47.568Z,94.50
2019-05-06T22:45:17.740Z,94.50
2019-05-06T22:47:47.031Z,94.50
2019-05-06T22:50:16.427Z,94.80
2019-05-06T22:52:45.742Z,94.60
2019-05-06T22:55:15.284Z,94.80
2019-05-06T22:57:44.599Z,94.70
2019-05-06T23:00:17.136Z,94.70
2019-05-06T23:02:48.104Z,94.60
2019-05-06T23:05:17.414Z,94.80
2019-05-06T23:07:46.742Z,94.80
2019-05-06T23:10:16.140Z,95.00
2019-05-06T23:12:45.449Z,95.20
2019-05-06T23:15:14.856Z,95.50
2019-05-06T23:17:44.153Z,95.70
2019-05-06T23:20:13.626Z,95.40
2019-05-06T23:22:42.928Z,95.40
2019-05-06T23:25:13.807Z,95.50
2019-05-06T23:27:44.225Z,95.70
2019-05-06T23:30:13.871Z,95.40
2019-05-06T23:32:43.192Z,95.70
2019-05-06T23:35:12.969Z,95.50
2019-05-06T23:38:18.848Z,95.50
2019-05-06T23:41:24.728Z,95.80
2019-05-06T23:44:43.067Z,95.80
2019-05-06T23:47:38.249Z,95.60
2019-05-06T23:50:43.849Z,96.20
2019-05-06T23:53:49.532Z,96.30
2019-05-06T23:56:44.303Z,96.10
2019-05-06T23:59:16.009Z,96.40
